createdAt,value
2022-08-11T00:01:18.805Z,82.00
2022-08-11T00:03:52.305Z,82.30
2022-08-11T00:06:30.997Z,82.40
2022-08-11T00:09:02.202Z,82.60
2022-08-11T00:11:37.494Z,82.60
2022-08-11T00:14:17.004Z,83.10
2022-08-11T00:16:56.830Z,83.30
2022-08-11T00:20:12.137Z,83.40
2022-08-11T00:22:24.779Z,83.30
2022-08-11T00:24:57.343Z,84.00
2022-08-11T00:27:34.679Z,83.80
2022-08-11T00:30:05.626Z,84.20
2022-08-11T00:32:35.792Z,84.60
2022-08-11T00:35:51.906Z,84.40
2022-08-11T00:38:00.919Z,85.10
2022-08-11T00:40:46.590Z,85.30
2022-08-11T00:43:24.050Z,85.10
2022-08-11T00:46:20.624Z,85.50
2022-08-11T00:49:07.237Z,85.80
2022-08-11T00:52:04.217Z,85.80
2022-08-11T00:55:27.222Z,86.50
2022-08-11T00:59:35.497Z,86.00
2022-08-11T01:02:18.776Z,86.80
2022-08-11T01:05:18.959Z,87.30
2022-08-11T01:08:24.314Z,87.50
2022-08-11T01:11:18.689Z,87.30
2022-08-11T01:14:34.180Z,87.30
2022-08-11T01:17:41.988Z,87.00
2022-08-11T01:20:46.043Z,87.40
2022-08-11T01:24:12.689Z,88.20
2022-08-11T01:27:36.816Z,88.40
2022-08-11T01:30:27.759Z,88.60
2022-08-11T01:34:14.434Z,88.20
2022-08-11T01:37:49.563Z,89.30
2022-08-11T01:41:02.818Z,89.30
2022-08-11T01:44:31.832Z,90.10
2022-08-11T01:47:52.500Z,90.10
2022-08-11T01:50:41.633Z,90.10
2022-08-11T01:53:28.154Z,90.50
2022-08-11T01:56:12.198Z,90.40
2022-08-11T01:58:49.427Z,90.80
2022-08-11T02:01:38.536Z,90.50
2022-08-11T02:04:26.351Z,90.60
2022-08-11T02:07:08.928Z,90.90
2022-08-11T02:10:35.343Z,91.00
2022-08-11T02:13:16.005Z,91.40
2022-08-11T02:16:09.452Z,91.50
2022-08-11T02:19:00.632Z,91.40
2022-08-11T02:22:15.377Z,91.60
2022-08-11T02:24:55.595Z,91.70
2022-08-11T02:27:31.733Z,91.90
2022-08-11T02:30:08.412Z,92.00
2022-08-11T02:33:05.161Z,91.90
2022-08-11T02:35:45.650Z,92.20
2022-08-11T02:38:26.648Z,91.80
2022-08-11T02:41:29.432Z,91.70
2022-08-11T02:44:17.048Z,92.10
2022-08-11T02:47:00.344Z,92.10
2022-08-11T02:50:02.697Z,92.20
2022-08-11T02:52:46.340Z,92.30
2022-08-11T02:55:56.644Z,92.50
2022-08-11T02:58:33.191Z,92.70
2022-08-11T03:01:14.714Z,92.90
2022-08-11T03:03:53.933Z,93.00
2022-08-11T03:06:36.704Z,93.50
2022-08-11T03:09:15.090Z,93.30
2022-08-11T03:12:19.260Z,93.50
2022-08-11T03:15:15.450Z,93.40
2022-08-11T03:18:03.264Z,93.50
2022-08-11T03:20:44.136Z,93.70
2022-08-11T03:23:26.035Z,93.80
2022-08-11T03:26:16.649Z,94.20
2022-08-11T03:29:06.046Z,94.20
2022-08-11T03:31:47.714Z,94.50
2022-08-11T03:34:22.349Z,94.50
2022-08-11T03:37:51.930Z,94.60
2022-08-11T03:41:06.298Z,94.60
2022-08-11T03:44:08.189Z,95.00
2022-08-11T03:47:01.551Z,95.20
2022-08-11T03:49:46.550Z,95.50
2022-08-11T03:52:29.026Z,95.60
2022-08-11T03:55:21.893Z,95.80
2022-08-11T03:58:36.883Z,95.90
2022-08-11T04:01:55.774Z,96.20
2022-08-11T04:05:00.710Z,96.30
2022-08-11T04:08:21.448Z,96.60
2022-08-11T04:11:19.033Z,96.60
2022-08-11T04:14:59.129Z,96.80
2022-08-11T04:18:11.147Z,97.10
2022-08-11T04:21:09.286Z,97.40
2022-08-11T04:24:50.165Z,97.70
2022-08-11T04:27:53.636Z,97.90
2022-08-11T04:30:40.581Z,98.10
2022-08-11T04:34:08.041Z,98.70
2022-08-11T04:37:09.873Z,98.90
2022-08-11T04:39:56.098Z,98.90
2022-08-11T04:43:33.003Z,99.00
2022-08-11T04:46:50.544Z,99.30
2022-08-11T04:50:25.288Z,99.60
2022-08-11T04:53:40.835Z,99.70
2022-08-11T04:56:34.084Z,99.90
2022-08-11T05:00:01.242Z,99.90
2022-08-11T05:03:32.830Z,99.90
2022-08-11T05:06:41.055Z,99.90
2022-08-11T05:09:28.252Z,99.60
2022-08-11T05:12:37.995Z,98.70
2022-08-11T05:15:31.291Z,97.90
2022-08-11T05:18:39.457Z,96.80
2022-08-11T05:21:29.553Z,96.60
2022-08-11T05:24:29.865Z,96.50
2022-08-11T05:27:22.208Z,95.90
2022-08-11T05:30:19.247Z,96.00
2022-08-11T05:33:16.038Z,95.60
2022-08-11T05:36:01.779Z,95.60
2022-08-11T05:38:54.904Z,95.10
2022-08-11T05:41:44.630Z,94.10
2022-08-11T05:44:39.356Z,93.80
2022-08-11T05:47:27.522Z,93.50
2022-08-11T05:50:15.273Z,92.80
2022-08-11T05:53:05.203Z,91.50
2022-08-11T05:56:03.296Z,91.00
2022-08-11T05:58:42.756Z,90.60
2022-08-11T06:01:15.805Z,89.90
2022-08-11T06:04:04.227Z,89.20
2022-08-11T06:06:33.847Z,87.30
2022-08-11T06:09:03.869Z,86.30
2022-08-11T06:11:43.263Z,85.90
2022-08-11T06:14:16.638Z,86.00
2022-08-11T06:16:51.074Z,84.10
2022-08-11T06:19:24.838Z,84.30
2022-08-11T06:21:54.764Z,83.10
2022-08-11T06:24:24.396Z,82.80
2022-08-11T06:27:11.800Z,82.80
2022-08-11T06:29:54.728Z,82.20
2022-08-11T06:32:32.888Z,82.70
2022-08-11T06:35:19.043Z,81.00
2022-08-11T06:38:04.405Z,82.10
2022-08-11T06:41:09.491Z,82.10
2022-08-11T06:43:56.017Z,82.90
2022-08-11T06:46:33.110Z,81.90
2022-08-11T06:49:04.075Z,81.90
2022-08-11T06:51:34.517Z,82.30
2022-08-11T06:54:07.481Z,82.70
2022-08-11T06:57:26.230Z,82.70
2022-08-11T07:00:06.203Z,82.60
2022-08-11T07:02:46.412Z,82.50
2022-08-11T07:05:24.749Z,83.80
2022-08-11T07:08:56.066Z,81.50
2022-08-11T07:12:26.663Z,82.00
2022-08-11T07:15:15.449Z,82.40
2022-08-11T07:18:12.018Z,82.20
2022-08-11T07:21:02.177Z,82.60
2022-08-11T07:23:54.178Z,82.20
2022-08-11T07:26:46.565Z,82.90
2022-08-11T07:29:17.293Z,82.90
2022-08-11T07:31:51.992Z,82.80
2022-08-11T07:34:28.051Z,82.30
2022-08-11T07:36:59.187Z,82.80
2022-08-11T07:39:33.036Z,83.20
2022-08-11T07:42:08.143Z,83.60
2022-08-11T07:44:58.697Z,83.00
2022-08-11T07:47:47.540Z,83.00
2022-08-11T07:50:36.201Z,84.20
2022-08-11T07:53:06.311Z,83.30
2022-08-11T07:55:49.076Z,84.10
2022-08-11T07:58:45.575Z,84.00
2022-08-11T08:01:42.508Z,84.90
2022-08-11T08:04:33.251Z,84.20
2022-08-11T08:07:23.556Z,83.60
2022-08-11T08:10:14.069Z,84.70
2022-08-11T08:13:03.184Z,85.00
2022-08-11T08:15:50.426Z,84.40
2022-08-11T08:18:26.046Z,84.50
2022-08-11T08:21:11.860Z,84.80
2022-08-11T08:23:46.694Z,83.80
2022-08-11T08:26:35.283Z,84.60
2022-08-11T08:29:25.761Z,83.80
2022-08-11T08:31:56.573Z,83.70
2022-08-11T08:34:26.673Z,84.30
2022-08-11T08:36:56.760Z,84.00
2022-08-11T08:39:27.396Z,84.10
2022-08-11T08:42:00.182Z,84.50
2022-08-11T08:44:40.850Z,83.60
2022-08-11T08:47:15.494Z,83.10
2022-08-11T08:50:16.377Z,82.00
2022-08-11T08:52:53.809Z,81.00
2022-08-11T08:55:24.722Z,81.30
2022-08-11T08:57:56.258Z,80.90
2022-08-11T09:00:26.110Z,81.10
2022-08-11T09:02:55.335Z,79.40
2022-08-11T09:05:27.374Z,78.60
2022-08-11T09:07:58.282Z,77.30
2022-08-11T09:10:31.447Z,76.60
2022-08-11T09:13:02.701Z,76.50
2022-08-11T09:15:35.017Z,77.10
2022-08-11T09:18:06.045Z,76.80
2022-08-11T09:20:38.666Z,75.60
2022-08-11T09:24:08.789Z,75.10
2022-08-11T09:26:35.806Z,75.70
2022-08-11T09:29:05.737Z,76.20
2022-08-11T09:31:39.725Z,75.10
2022-08-11T09:34:12.046Z,73.80
2022-08-11T09:37:00.621Z,73.50
2022-08-11T09:39:49.726Z,72.00
2022-08-11T09:42:23.945Z,72.70
2022-08-11T09:44:53.370Z,71.60
2022-08-11T09:47:29.635Z,71.40
2022-08-11T09:50:02.227Z,71.10
2022-08-11T09:52:52.207Z,70.50
2022-08-11T09:55:27.622Z,70.70
2022-08-11T09:58:41.670Z,70.70
2022-08-11T10:01:07.878Z,69.70
2022-08-11T10:03:42.340Z,69.60
2022-08-11T10:06:33.218Z,70.10
2022-08-11T10:09:07.094Z,69.80
2022-08-11T10:11:37.877Z,68.50
2022-08-11T10:14:32.882Z,68.70
2022-08-11T10:17:08.114Z,68.40
2022-08-11T10:19:38.788Z,68.80
2022-08-11T10:22:27.611Z,69.30
2022-08-11T10:25:20.198Z,69.00
2022-08-11T10:28:28.915Z,67.60
2022-08-11T10:31:05.167Z,67.20
2022-08-11T10:33:59.506Z,67.60
2022-08-11T10:36:30.253Z,64.40
2022-08-11T10:39:01.851Z,63.60
2022-08-11T10:42:06.517Z,61.80
2022-08-11T10:44:42.093Z,62.80
2022-08-11T10:47:33.530Z,63.90
2022-08-11T10:50:21.484Z,64.30
2022-08-11T10:53:10.388Z,64.50
2022-08-11T10:56:02.492Z,64.20
2022-08-11T10:58:51.532Z,62.70
2022-08-11T11:01:26.500Z,61.20
2022-08-11T11:04:02.977Z,63.70
2022-08-11T11:06:44.898Z,63.70
2022-08-11T11:09:22.268Z,63.50
2022-08-11T11:12:13.423Z,63.30
2022-08-11T11:15:02.295Z,64.20
2022-08-11T11:17:56.198Z,63.80
2022-08-11T11:20:36.195Z,63.50
2022-08-11T11:23:16.642Z,63.30
2022-08-11T11:26:27.480Z,62.80
2022-08-11T11:29:41.412Z,63.20
2022-08-11T11:32:25.531Z,64.20
2022-08-11T11:35:37.630Z,63.50
2022-08-11T11:38:13.765Z,63.10
2022-08-11T11:41:04.967Z,63.90
2022-08-11T11:43:37.701Z,61.70
2022-08-11T11:46:10.749Z,63.20
2022-08-11T11:48:40.365Z,61.40
2022-08-11T11:51:13.961Z,61.80
2022-08-11T11:53:45.119Z,62.20
2022-08-11T11:56:15.614Z,61.90
2022-08-11T11:59:03.008Z,61.70
2022-08-11T12:01:34.383Z,62.00
2022-08-11T12:04:06.721Z,61.20
2022-08-11T12:06:38.234Z,61.90
2022-08-11T12:09:08.089Z,61.30
2022-08-11T12:11:55.013Z,61.10
2022-08-11T12:14:27.626Z,60.90
2022-08-11T12:16:58.660Z,59.90
2022-08-11T12:19:35.937Z,60.60
2022-08-11T12:22:24.658Z,61.00
2022-08-11T12:25:11.296Z,60.80
2022-08-11T12:27:42.145Z,60.80
2022-08-11T12:30:12.862Z,60.30
2022-08-11T12:32:44.104Z,59.60
2022-08-11T12:35:16.995Z,59.60
2022-08-11T12:38:02.580Z,60.00
2022-08-11T12:44:05.984Z,60.80
2022-08-11T12:46:38.114Z,60.20
2022-08-11T12:49:31.883Z,59.40
2022-08-11T12:52:14.509Z,58.50
2022-08-11T12:54:58.889Z,58.50
2022-08-11T12:57:51.149Z,59.60
2022-08-11T13:00:39.502Z,58.80
2022-08-11T13:03:29.014Z,58.40
2022-08-11T13:06:02.731Z,58.30
2022-08-11T13:08:39.298Z,58.00
2022-08-11T13:11:56.554Z,57.80
2022-08-11T13:14:18.717Z,57.80
2022-08-11T13:17:06.292Z,57.90
2022-08-11T13:19:36.247Z,56.80
2022-08-11T13:22:07.464Z,57.00
2022-08-11T13:24:37.901Z,56.80
2022-08-11T13:27:08.932Z,56.60
2022-08-11T13:29:40.376Z,56.80
2022-08-11T13:32:11.369Z,56.30
2022-08-11T13:34:43.182Z,56.30
2022-08-11T13:37:14.537Z,56.30
2022-08-11T13:39:47.310Z,55.90
2022-08-11T13:42:21.797Z,56.10
2022-08-11T13:44:51.130Z,56.10
2022-08-11T13:47:23.599Z,55.40
2022-08-11T13:49:53.976Z,55.70
2022-08-11T13:52:23.689Z,55.00
2022-08-11T13:54:53.693Z,54.30
2022-08-11T13:58:06.662Z,54.50
2022-08-11T14:00:27.601Z,54.40
2022-08-11T14:02:58.920Z,54.50
2022-08-11T14:05:30.756Z,54.40
2022-08-11T14:08:04.030Z,54.80
2022-08-11T14:10:38.031Z,55.00
2022-08-11T14:13:41.684Z,54.40
2022-08-11T14:16:22.514Z,54.70
2022-08-11T14:18:56.031Z,53.70
2022-08-11T14:21:43.448Z,53.70
2022-08-11T14:24:13.807Z,54.50
2022-08-11T14:26:44.258Z,54.20
2022-08-11T14:31:50.327Z,53.90
2022-08-11T14:34:22.238Z,53.30
2022-08-11T14:36:54.947Z,53.10
2022-08-11T14:39:27.030Z,52.80
2022-08-11T14:42:17.448Z,52.90
2022-08-11T14:45:08.096Z,53.40
2022-08-11T14:47:39.450Z,53.70
2022-08-11T14:50:14.960Z,53.60
2022-08-11T14:52:54.978Z,53.90
2022-08-11T14:55:43.505Z,53.60
2022-08-11T14:58:18.257Z,54.00
2022-08-11T15:00:53.082Z,53.10
2022-08-11T15:03:28.108Z,53.10
2022-08-11T15:06:02.266Z,53.60
2022-08-11T15:08:51.465Z,53.40
2022-08-11T15:11:41.634Z,52.90
2022-08-11T15:14:12.824Z,53.40
2022-08-11T15:17:03.613Z,53.80
2022-08-11T15:19:40.173Z,53.30
2022-08-11T15:22:29.169Z,53.00
2022-08-11T15:25:00.312Z,53.20
2022-08-11T15:27:50.068Z,53.90
2022-08-11T15:30:42.311Z,53.30
2022-08-11T15:33:33.630Z,53.20
2022-08-11T15:36:24.984Z,53.20
2022-08-11T15:38:59.549Z,52.80
2022-08-11T15:41:58.830Z,52.60
2022-08-11T15:45:08.850Z,52.60
2022-08-11T15:47:43.974Z,52.70
2022-08-11T15:50:20.212Z,53.00
2022-08-11T15:52:58.332Z,52.80
2022-08-11T15:55:32.266Z,53.00
2022-08-11T15:58:23.914Z,53.20
2022-08-11T16:01:12.810Z,52.90
2022-08-11T16:04:09.006Z,52.80
2022-08-11T16:07:01.596Z,52.70
2022-08-11T16:09:47.005Z,52.90
2022-08-11T16:12:21.058Z,53.30
2022-08-11T16:15:13.609Z,53.30
2022-08-11T16:17:48.411Z,53.20
2022-08-11T16:20:22.677Z,53.70
2022-08-11T16:23:02.188Z,53.40
2022-08-11T16:27:02.536Z,53.10
2022-08-11T16:28:26.496Z,53.30
2022-08-11T16:30:57.483Z,53.50
2022-08-11T16:33:50.158Z,53.40
2022-08-11T16:36:35.658Z,53.50
2022-08-11T16:39:08.046Z,53.50
2022-08-11T16:41:58.633Z,53.40
2022-08-11T16:44:46.998Z,53.10
2022-08-11T16:48:03.414Z,53.40
2022-08-11T16:50:11.047Z,53.20
2022-08-11T16:52:40.275Z,53.10
2022-08-11T16:55:11.737Z,53.30
2022-08-11T16:58:18.899Z,53.20
2022-08-11T17:00:51.175Z,52.70
2022-08-11T17:03:38.408Z,52.80
2022-08-11T17:06:26.711Z,52.80
2022-08-11T17:09:13.887Z,53.10
2022-08-11T17:12:06.933Z,53.20
2022-08-11T17:14:41.752Z,53.20
2022-08-11T17:17:16.876Z,53.40
2022-08-11T17:20:39.649Z,53.60
2022-08-11T17:22:59.748Z,53.90
2022-08-11T17:25:32.200Z,54.40
2022-08-11T17:28:24.680Z,53.80
2022-08-11T17:31:19.984Z,54.30
2022-08-11T17:34:10.959Z,54.30
2022-08-11T17:36:45.724Z,54.50
2022-08-11T17:39:17.093Z,54.40
2022-08-11T17:42:04.332Z,54.90
2022-08-11T17:44:54.122Z,54.70
2022-08-11T17:47:43.689Z,54.50
2022-08-11T17:50:16.951Z,54.60
2022-08-11T17:53:06.860Z,54.60
2022-08-11T17:55:57.974Z,54.50
2022-08-11T17:58:46.838Z,54.40
2022-08-11T18:01:19.652Z,54.30
2022-08-11T18:03:53.249Z,54.40
2022-08-11T18:06:34.881Z,54.60
2022-08-11T18:09:27.405Z,54.50
2022-08-11T18:12:15.093Z,54.50
2022-08-11T18:15:07.277Z,54.90
2022-08-11T18:17:56.375Z,54.40
2022-08-11T18:20:44.018Z,54.40
2022-08-11T18:23:46.924Z,55.40
2022-08-11T18:26:39.739Z,55.10
2022-08-11T18:29:27.419Z,55.30
2022-08-11T18:32:20.878Z,55.50
2022-08-11T18:35:13.142Z,55.80
2022-08-11T18:38:08.853Z,55.60
2022-08-11T18:40:56.452Z,55.80
2022-08-11T18:43:46.041Z,55.60
2022-08-11T18:46:36.984Z,55.80
2022-08-11T18:50:02.619Z,55.80
2022-08-11T18:52:41.195Z,56.30
2022-08-11T18:55:32.742Z,56.10
2022-08-11T18:58:24.915Z,56.40
2022-08-11T19:01:15.776Z,56.50
2022-08-11T19:04:11.120Z,56.00
2022-08-11T19:07:00.097Z,56.50
2022-08-11T19:09:50.949Z,56.40
2022-08-11T19:12:40.822Z,56.40
2022-08-11T19:15:28.802Z,57.00
2022-08-11T19:18:18.091Z,57.00
2022-08-11T19:21:05.658Z,57.80
2022-08-11T19:23:55.230Z,58.10
2022-08-11T19:26:43.651Z,58.10
2022-08-11T19:30:07.123Z,58.70
2022-08-11T19:32:39.548Z,59.10
2022-08-11T19:35:27.473Z,59.40
2022-08-11T19:38:15.591Z,59.80
2022-08-11T19:41:03.298Z,59.70
2022-08-11T19:43:52.734Z,59.70
2022-08-11T19:46:42.274Z,59.80
2022-08-11T19:49:31.166Z,59.40
2022-08-11T19:52:18.247Z,59.80
2022-08-11T19:55:05.566Z,58.90
2022-08-11T19:57:55.588Z,58.80
2022-08-11T20:00:44.270Z,59.10
2022-08-11T20:03:31.873Z,59.00
2022-08-11T20:06:22.291Z,59.30
2022-08-11T20:09:13.258Z,60.30
2022-08-11T20:12:03.869Z,61.00
2022-08-11T20:14:54.705Z,60.50
2022-08-11T20:17:48.223Z,61.30
2022-08-11T20:20:36.226Z,61.40
2022-08-11T20:23:27.674Z,61.80
2022-08-11T20:26:32.785Z,61.80
2022-08-11T20:29:20.568Z,61.90
2022-08-11T20:32:09.673Z,62.60
2022-08-11T20:34:59.290Z,64.00
2022-08-11T20:37:51.253Z,64.80
2022-08-11T20:40:43.119Z,64.30
2022-08-11T20:44:08.454Z,64.60
2022-08-11T20:46:42.327Z,65.00
2022-08-11T20:49:44.353Z,64.70
2022-08-11T20:52:40.382Z,65.20
2022-08-11T20:55:51.810Z,65.20
2022-08-11T21:01:52.073Z,66.40
2022-08-11T21:04:54.910Z,66.10
2022-08-11T21:07:55.264Z,66.30
2022-08-11T21:13:59.008Z,65.90
2022-08-11T21:16:51.283Z,65.90
2022-08-11T21:20:01.200Z,65.90
2022-08-11T21:22:59.633Z,66.30
2022-08-11T21:25:59.334Z,67.20
2022-08-11T21:28:50.071Z,68.60
2022-08-11T21:31:38.820Z,67.50
2022-08-11T21:34:29.825Z,67.40
2022-08-11T21:37:19.459Z,67.30
2022-08-11T21:40:12.470Z,67.70
2022-08-11T21:43:04.345Z,67.70
2022-08-11T21:45:53.089Z,67.40
2022-08-11T21:48:42.731Z,67.90
2022-08-11T21:51:29.523Z,68.10
2022-08-11T21:54:19.503Z,68.20
2022-08-11T21:57:09.009Z,68.60
2022-08-11T22:00:03.861Z,69.00
2022-08-11T22:02:59.392Z,69.30
2022-08-11T22:05:47.834Z,69.10
2022-08-11T22:08:35.425Z,69.60
2022-08-11T22:11:31.950Z,70.60
2022-08-11T22:14:24.719Z,70.60
2022-08-11T22:17:11.527Z,71.00
2022-08-11T22:20:00.628Z,70.40
2022-08-11T22:22:52.752Z,70.30
2022-08-11T22:25:51.292Z,70.10
2022-08-11T22:28:43.480Z,70.30
2022-08-11T22:31:32.949Z,70.60
2022-08-11T22:34:20.238Z,71.20
2022-08-11T22:37:08.315Z,71.80
2022-08-11T22:40:01.900Z,71.30
2022-08-11T22:42:50.370Z,71.90
2022-08-11T22:45:40.123Z,72.20
2022-08-11T22:48:29.708Z,72.50
2022-08-11T22:51:18.100Z,72.60
2022-08-11T22:54:09.607Z,72.30
2022-08-11T22:56:57.392Z,72.20
2022-08-11T22:59:44.845Z,71.90
2022-08-11T23:02:35.021Z,71.80
2022-08-11T23:05:24.993Z,72.60
2022-08-11T23:08:12.087Z,73.40
2022-08-11T23:10:59.115Z,74.00
2022-08-11T23:13:49.090Z,73.80
2022-08-11T23:16:37.462Z,73.60
2022-08-11T23:20:07.151Z,73.90
2022-08-11T23:22:37.190Z,72.90
2022-08-11T23:25:37.305Z,73.30
2022-08-11T23:28:25.353Z,74.70
2022-08-11T23:31:15.887Z,74.90
2022-08-11T23:34:09.164Z,74.90
2022-08-11T23:37:15.810Z,75.00
2022-08-11T23:40:03.697Z,74.70
2022-08-11T23:42:55.906Z,75.10
2022-08-11T23:45:46.820Z,75.20
2022-08-11T23:48:34.871Z,75.40
2022-08-11T23:51:22.191Z,75.00
2022-08-11T23:54:09.767Z,74.50
2022-08-11T23:56:57.636Z,75.80
2022-08-11T23:59:44.316Z,74.70
